sensor_id;sensor_type;location;lat;lon;timestamp;temperature;humidity
77052;SHT30;65980;44.898;8.602;2023-07-31T00:01:39;24.34;68.70
77052;SHT30;65980;44.898;8.602;2023-07-31T00:04:43;24.23;69.05
77052;SHT30;65980;44.898;8.602;2023-07-31T00:07:47;24.23;69.08
77052;SHT30;65980;44.898;8.602;2023-07-31T00:10:52;24.14;69.38
77052;SHT30;65980;44.898;8.602;2023-07-31T00:13:56;24.12;69.48
77052;SHT30;65980;44.898;8.602;2023-07-31T00:17:01;24.05;69.91
77052;SHT30;65980;44.898;8.602;2023-07-31T00:20:05;24.20;69.34
77052;SHT30;65980;44.898;8.602;2023-07-31T00:23:10;24.19;69.31
77052;SHT30;65980;44.898;8.602;2023-07-31T00:26:14;24.03;70.03
77052;SHT30;65980;44.898;8.602;2023-07-31T00:29:18;24.09;69.72
77052;SHT30;65980;44.898;8.602;2023-07-31T00:32:22;24.09;69.60
77052;SHT30;65980;44.898;8.602;2023-07-31T00:35:27;23.99;69.95
77052;SHT30;65980;44.898;8.602;2023-07-31T00:38:31;24.10;69.56
77052;SHT30;65980;44.898;8.602;2023-07-31T00:41:37;24.05;69.90
77052;SHT30;65980;44.898;8.602;2023-07-31T00:44:41;23.95;70.23
77052;SHT30;65980;44.898;8.602;2023-07-31T00:47:45;23.99;69.90
77052;SHT30;65980;44.898;8.602;2023-07-31T00:50:50;23.85;70.53
77052;SHT30;65980;44.898;8.602;2023-07-31T00:53:54;23.75;70.75
77052;SHT30;65980;44.898;8.602;2023-07-31T00:57:00;23.65;71.13
77052;SHT30;65980;44.898;8.602;2023-07-31T01:00:06;23.64;71.35
77052;SHT30;65980;44.898;8.602;2023-07-31T01:03:11;23.43;71.89
77052;SHT30;65980;44.898;8.602;2023-07-31T01:10:16;23.65;71.00
77052;SHT30;65980;44.898;8.602;2023-07-31T01:13:23;23.64;71.21
77052;SHT30;65980;44.898;8.602;2023-07-31T01:16:27;23.76;70.75
77052;SHT30;65980;44.898;8.602;2023-07-31T01:19:31;23.66;71.35
77052;SHT30;65980;44.898;8.602;2023-07-31T01:26:18;23.68;71.07
77052;SHT30;65980;44.898;8.602;2023-07-31T01:29:34;23.21;72.59
77052;SHT30;65980;44.898;8.602;2023-07-31T01:32:42;23.34;72.14
77052;SHT30;65980;44.898;8.602;2023-07-31T01:35:47;23.31;72.33
77052;SHT30;65980;44.898;8.602;2023-07-31T01:38:58;23.24;72.78
77052;SHT30;65980;44.898;8.602;2023-07-31T01:42:03;23.28;72.65
77052;SHT30;65980;44.898;8.602;2023-07-31T01:45:07;23.16;72.69
77052;SHT30;65980;44.898;8.602;2023-07-31T01:48:11;23.02;73.25
77052;SHT30;65980;44.898;8.602;2023-07-31T01:51:15;23.11;73.20
77052;SHT30;65980;44.898;8.602;2023-07-31T01:54:20;23.06;73.17
77052;SHT30;65980;44.898;8.602;2023-07-31T01:57:24;23.03;73.23
77052;SHT30;65980;44.898;8.602;2023-07-31T02:00:29;23.07;72.75
77052;SHT30;65980;44.898;8.602;2023-07-31T02:03:33;22.85;73.68
77052;SHT30;65980;44.898;8.602;2023-07-31T02:06:38;22.96;73.17
77052;SHT30;65980;44.898;8.602;2023-07-31T02:09:44;23.00;73.04
77052;SHT30;65980;44.898;8.602;2023-07-31T02:12:48;22.65;74.13
77052;SHT30;65980;44.898;8.602;2023-07-31T02:15:52;22.64;74.14
77052;SHT30;65980;44.898;8.602;2023-07-31T02:18:56;22.77;73.58
77052;SHT30;65980;44.898;8.602;2023-07-31T02:21:59;22.79;73.49
77052;SHT30;65980;44.898;8.602;2023-07-31T02:25:05;22.75;73.91
77052;SHT30;65980;44.898;8.602;2023-07-31T02:28:09;22.71;73.74
77052;SHT30;65980;44.898;8.602;2023-07-31T02:31:14;22.61;74.24
77052;SHT30;65980;44.898;8.602;2023-07-31T02:34:18;22.49;74.64
77052;SHT30;65980;44.898;8.602;2023-07-31T02:37:23;22.71;73.87
77052;SHT30;65980;44.898;8.602;2023-07-31T02:40:28;22.91;73.03
77052;SHT30;65980;44.898;8.602;2023-07-31T02:43:32;22.77;73.55
77052;SHT30;65980;44.898;8.602;2023-07-31T02:46:36;22.77;73.56
77052;SHT30;65980;44.898;8.602;2023-07-31T02:49:40;22.82;73.39
77052;SHT30;65980;44.898;8.602;2023-07-31T02:52:44;22.71;73.80
77052;SHT30;65980;44.898;8.602;2023-07-31T02:55:48;22.29;75.45
77052;SHT30;65980;44.898;8.602;2023-07-31T02:58:52;22.38;75.30
77052;SHT30;65980;44.898;8.602;2023-07-31T03:01:57;22.61;74.53
77052;SHT30;65980;44.898;8.602;2023-07-31T03:05:03;22.66;74.44
77052;SHT30;65980;44.898;8.602;2023-07-31T03:08:08;22.86;73.64
77052;SHT30;65980;44.898;8.602;2023-07-31T03:11:14;22.68;74.18
77052;SHT30;65980;44.898;8.602;2023-07-31T03:14:17;22.27;76.35
77052;SHT30;65980;44.898;8.602;2023-07-31T03:17:22;22.10;76.68
77052;SHT30;65980;44.898;8.602;2023-07-31T03:20:26;22.04;76.88
77052;SHT30;65980;44.898;8.602;2023-07-31T03:23:31;22.02;76.61
77052;SHT30;65980;44.898;8.602;2023-07-31T03:26:35;21.96;76.98
77052;SHT30;65980;44.898;8.602;2023-07-31T03:29:41;21.86;78.02
77052;SHT30;65980;44.898;8.602;2023-07-31T03:32:45;22.04;77.18
77052;SHT30;65980;44.898;8.602;2023-07-31T03:35:49;22.29;76.58
77052;SHT30;65980;44.898;8.602;2023-07-31T03:38:53;22.44;75.70
77052;SHT30;65980;44.898;8.602;2023-07-31T03:41:56;22.49;75.68
77052;SHT30;65980;44.898;8.602;2023-07-31T03:45:01;22.58;75.23
77052;SHT30;65980;44.898;8.602;2023-07-31T03:48:06;22.49;75.45
77052;SHT30;65980;44.898;8.602;2023-07-31T03:51:12;22.48;75.91
77052;SHT30;65980;44.898;8.602;2023-07-31T03:54:15;22.65;75.15
77052;SHT30;65980;44.898;8.602;2023-07-31T03:57:19;22.62;75.45
77052;SHT30;65980;44.898;8.602;2023-07-31T04:00:26;22.58;75.41
77052;SHT30;65980;44.898;8.602;2023-07-31T04:03:31;22.54;75.75
77052;SHT30;65980;44.898;8.602;2023-07-31T04:06:35;22.62;75.60
77052;SHT30;65980;44.898;8.602;2023-07-31T04:09:39;22.62;75.32
77052;SHT30;65980;44.898;8.602;2023-07-31T04:12:45;22.72;75.05
77052;SHT30;65980;44.898;8.602;2023-07-31T04:15:50;22.62;75.23
77052;SHT30;65980;44.898;8.602;2023-07-31T04:18:57;22.40;76.29
77052;SHT30;65980;44.898;8.602;2023-07-31T04:22:02;22.38;76.32
77052;SHT30;65980;44.898;8.602;2023-07-31T04:25:07;22.36;76.36
77052;SHT30;65980;44.898;8.602;2023-07-31T04:28:12;22.31;76.49
77052;SHT30;65980;44.898;8.602;2023-07-31T04:31:16;22.21;76.73
77052;SHT30;65980;44.898;8.602;2023-07-31T04:34:19;22.06;76.94
77052;SHT30;65980;44.898;8.602;2023-07-31T04:37:24;21.78;77.88
77052;SHT30;65980;44.898;8.602;2023-07-31T04:40:27;21.75;78.01
77052;SHT30;65980;44.898;8.602;2023-07-31T04:43:32;21.59;78.55
77052;SHT30;65980;44.898;8.602;2023-07-31T04:46:37;21.54;78.57
77052;SHT30;65980;44.898;8.602;2023-07-31T04:49:42;21.38;79.04
77052;SHT30;65980;44.898;8.602;2023-07-31T04:52:45;21.28;79.23
77052;SHT30;65980;44.898;8.602;2023-07-31T04:55:50;21.19;79.10
77052;SHT30;65980;44.898;8.602;2023-07-31T04:58:54;21.06;79.45
77052;SHT30;65980;44.898;8.602;2023-07-31T05:01:58;20.97;79.76
77052;SHT30;65980;44.898;8.602;2023-07-31T05:05:03;21.03;79.50
77052;SHT30;65980;44.898;8.602;2023-07-31T05:08:08;21.17;79.37
77052;SHT30;65980;44.898;8.602;2023-07-31T05:11:12;21.34;78.77
77052;SHT30;65980;44.898;8.602;2023-07-31T05:14:17;21.57;78.17
77052;SHT30;65980;44.898;8.602;2023-07-31T05:17:22;21.81;77.49
77052;SHT30;65980;44.898;8.602;2023-07-31T05:20:25;22.06;77.02
77052;SHT30;65980;44.898;8.602;2023-07-31T05:23:30;22.23;76.53
77052;SHT30;65980;44.898;8.602;2023-07-31T05:26:36;22.12;77.07
77052;SHT30;65980;44.898;8.602;2023-07-31T05:29:42;21.92;77.81
77052;SHT30;65980;44.898;8.602;2023-07-31T05:32:46;21.97;77.93
77052;SHT30;65980;44.898;8.602;2023-07-31T05:35:51;22.03;77.82
77052;SHT30;65980;44.898;8.602;2023-07-31T05:38:55;22.13;77.35
77052;SHT30;65980;44.898;8.602;2023-07-31T05:42:02;22.20;77.43
77052;SHT30;65980;44.898;8.602;2023-07-31T05:45:07;22.33;77.40
77052;SHT30;65980;44.898;8.602;2023-07-31T05:48:12;22.54;76.98
77052;SHT30;65980;44.898;8.602;2023-07-31T05:51:16;22.54;77.20
77052;SHT30;65980;44.898;8.602;2023-07-31T05:54:23;22.65;77.16
77052;SHT30;65980;44.898;8.602;2023-07-31T05:57:28;22.75;77.54
77052;SHT30;65980;44.898;8.602;2023-07-31T06:00:31;22.98;76.99
77052;SHT30;65980;44.898;8.602;2023-07-31T06:03:36;23.06;76.78
77052;SHT30;65980;44.898;8.602;2023-07-31T06:06:40;23.20;76.24
77052;SHT30;65980;44.898;8.602;2023-07-31T06:09:44;23.33;75.80
77052;SHT30;65980;44.898;8.602;2023-07-31T06:12:48;23.17;76.28
77052;SHT30;65980;44.898;8.602;2023-07-31T06:15:52;23.11;77.00
77052;SHT30;65980;44.898;8.602;2023-07-31T06:18:57;23.07;77.64
77052;SHT30;65980;44.898;8.602;2023-07-31T06:22:01;23.24;77.08
77052;SHT30;65980;44.898;8.602;2023-07-31T06:25:06;23.20;77.00
77052;SHT30;65980;44.898;8.602;2023-07-31T06:28:10;23.30;76.70
77052;SHT30;65980;44.898;8.602;2023-07-31T06:31:14;23.38;76.88
77052;SHT30;65980;44.898;8.602;2023-07-31T06:34:18;23.36;76.89
77052;SHT30;65980;44.898;8.602;2023-07-31T06:39:00;23.37;77.68
77052;SHT30;65980;44.898;8.602;2023-07-31T06:42:05;23.71;77.24
77052;SHT30;65980;44.898;8.602;2023-07-31T06:45:11;23.79;76.93
77052;SHT30;65980;44.898;8.602;2023-07-31T06:48:16;23.85;76.69
77052;SHT30;65980;44.898;8.602;2023-07-31T06:51:21;23.83;76.99
77052;SHT30;65980;44.898;8.602;2023-07-31T06:54:25;23.82;77.25
77052;SHT30;65980;44.898;8.602;2023-07-31T06:57:29;23.98;77.00
77052;SHT30;65980;44.898;8.602;2023-07-31T07:00:33;24.13;75.94
77052;SHT30;65980;44.898;8.602;2023-07-31T07:03:38;24.14;76.33
77052;SHT30;65980;44.898;8.602;2023-07-31T07:06:46;24.20;76.25
77052;SHT30;65980;44.898;8.602;2023-07-31T07:09:51;24.33;76.01
77052;SHT30;65980;44.898;8.602;2023-07-31T07:12:55;24.23;76.32
77052;SHT30;65980;44.898;8.602;2023-07-31T07:15:59;24.58;75.87
77052;SHT30;65980;44.898;8.602;2023-07-31T07:19:03;24.58;75.88
77052;SHT30;65980;44.898;8.602;2023-07-31T07:22:10;24.33;76.94
77052;SHT30;65980;44.898;8.602;2023-07-31T07:25:14;24.78;75.65
77052;SHT30;65980;44.898;8.602;2023-07-31T07:28:18;25.17;74.65
77052;SHT30;65980;44.898;8.602;2023-07-31T07:31:23;25.51;73.24
77052;SHT30;65980;44.898;8.602;2023-07-31T07:34:28;25.89;72.25
77052;SHT30;65980;44.898;8.602;2023-07-31T07:37:33;26.00;71.43
77052;SHT30;65980;44.898;8.602;2023-07-31T07:40:39;26.03;71.61
77052;SHT30;65980;44.898;8.602;2023-07-31T07:43:43;25.99;71.88
77052;SHT30;65980;44.898;8.602;2023-07-31T07:46:47;25.93;72.00
77052;SHT30;65980;44.898;8.602;2023-07-31T07:49:52;26.06;71.94
77052;SHT30;65980;44.898;8.602;2023-07-31T07:52:56;26.10;71.96
77052;SHT30;65980;44.898;8.602;2023-07-31T07:56:01;25.62;73.46
77052;SHT30;65980;44.898;8.602;2023-07-31T07:59:06;25.57;73.81
77052;SHT30;65980;44.898;8.602;2023-07-31T08:02:11;25.15;75.14
77052;SHT30;65980;44.898;8.602;2023-07-31T08:05:15;24.92;75.96
77052;SHT30;65980;44.898;8.602;2023-07-31T08:08:21;25.09;75.29
77052;SHT30;65980;44.898;8.602;2023-07-31T08:11:26;25.10;75.28
77052;SHT30;65980;44.898;8.602;2023-07-31T08:14:30;25.68;73.36
77052;SHT30;65980;44.898;8.602;2023-07-31T08:17:35;25.98;72.11
77052;SHT30;65980;44.898;8.602;2023-07-31T08:20:39;25.84;72.66
77052;SHT30;65980;44.898;8.602;2023-07-31T08:23:44;25.96;72.38
77052;SHT30;65980;44.898;8.602;2023-07-31T08:26:47;26.19;71.79
77052;SHT30;65980;44.898;8.602;2023-07-31T08:29:55;26.44;70.44
77052;SHT30;65980;44.898;8.602;2023-07-31T08:32:59;26.54;70.37
77052;SHT30;65980;44.898;8.602;2023-07-31T08:36:04;26.19;71.11
77052;SHT30;65980;44.898;8.602;2023-07-31T08:39:10;26.19;71.56
77052;SHT30;65980;44.898;8.602;2023-07-31T08:42:15;26.41;71.09
77052;SHT30;65980;44.898;8.602;2023-07-31T08:45:19;26.47;70.54
77052;SHT30;65980;44.898;8.602;2023-07-31T08:48:24;26.58;70.07
77052;SHT30;65980;44.898;8.602;2023-07-31T08:51:31;26.91;68.82
77052;SHT30;65980;44.898;8.602;2023-07-31T08:54:35;27.02;68.60
77052;SHT30;65980;44.898;8.602;2023-07-31T08:57:41;27.17;68.07
77052;SHT30;65980;44.898;8.602;2023-07-31T09:00:47;27.12;68.67
77052;SHT30;65980;44.898;8.602;2023-07-31T09:03:53;27.06;68.73
77052;SHT30;65980;44.898;8.602;2023-07-31T09:07:01;27.12;68.75
77052;SHT30;65980;44.898;8.602;2023-07-31T09:10:08;27.17;68.48
77052;SHT30;65980;44.898;8.602;2023-07-31T09:13:16;27.07;69.04
77052;SHT30;65980;44.898;8.602;2023-07-31T09:16:27;27.05;69.04
77052;SHT30;65980;44.898;8.602;2023-07-31T09:19:33;26.84;69.66
77052;SHT30;65980;44.898;8.602;2023-07-31T09:22:41;27.12;68.91
77052;SHT30;65980;44.898;8.602;2023-07-31T09:25:47;27.34;68.34
77052;SHT30;65980;44.898;8.602;2023-07-31T09:28:52;27.62;66.77
77052;SHT30;65980;44.898;8.602;2023-07-31T09:31:56;27.91;66.43
77052;SHT30;65980;44.898;8.602;2023-07-31T09:35:18;27.99;66.57
77052;SHT30;65980;44.898;8.602;2023-07-31T09:38:24;27.34;68.61
77052;SHT30;65980;44.898;8.602;2023-07-31T09:41:29;27.68;67.35
77052;SHT30;65980;44.898;8.602;2023-07-31T09:44:40;27.76;67.02
77052;SHT30;65980;44.898;8.602;2023-07-31T09:47:48;28.12;65.38
77052;SHT30;65980;44.898;8.602;2023-07-31T09:50:55;28.26;65.28
77052;SHT30;65980;44.898;8.602;2023-07-31T09:54:00;28.59;64.18
77052;SHT30;65980;44.898;8.602;2023-07-31T09:57:05;28.39;64.46
77052;SHT30;65980;44.898;8.602;2023-07-31T10:00:11;28.41;64.61
77052;SHT30;65980;44.898;8.602;2023-07-31T10:03:19;28.13;64.99
77052;SHT30;65980;44.898;8.602;2023-07-31T10:06:25;28.81;63.57
77052;SHT30;65980;44.898;8.602;2023-07-31T10:09:31;29.61;61.51
77052;SHT30;65980;44.898;8.602;2023-07-31T10:12:37;30.78;57.54
77052;SHT30;65980;44.898;8.602;2023-07-31T10:15:42;32.80;52.86
77052;SHT30;65980;44.898;8.602;2023-07-31T10:18:47;33.07;51.59
77052;SHT30;65980;44.898;8.602;2023-07-31T10:21:53;30.55;58.53
77052;SHT30;65980;44.898;8.602;2023-07-31T10:24:58;30.57;58.29
77052;SHT30;65980;44.898;8.602;2023-07-31T10:28:03;30.96;57.26
77052;SHT30;65980;44.898;8.602;2023-07-31T10:31:09;32.07;54.39
77052;SHT30;65980;44.898;8.602;2023-07-31T10:34:15;30.60;58.29
77052;SHT30;65980;44.898;8.602;2023-07-31T10:37:29;32.35;53.82
77052;SHT30;65980;44.898;8.602;2023-07-31T10:40:35;32.04;54.55
77052;SHT30;65980;44.898;8.602;2023-07-31T10:43:41;33.12;51.99
77052;SHT30;65980;44.898;8.602;2023-07-31T10:46:46;34.31;48.53
77052;SHT30;65980;44.898;8.602;2023-07-31T10:50:16;34.93;47.39
77052;SHT30;65980;44.898;8.602;2023-07-31T10:53:28;34.72;47.80
77052;SHT30;65980;44.898;8.602;2023-07-31T10:56:37;33.45;50.42
77052;SHT30;65980;44.898;8.602;2023-07-31T10:59:43;32.55;52.69
77052;SHT30;65980;44.898;8.602;2023-07-31T11:02:58;32.04;53.90
77052;SHT30;65980;44.898;8.602;2023-07-31T11:06:03;31.84;53.99
77052;SHT30;65980;44.898;8.602;2023-07-31T11:09:13;31.05;56.35
77052;SHT30;65980;44.898;8.602;2023-07-31T11:12:18;31.35;55.92
77052;SHT30;65980;44.898;8.602;2023-07-31T11:15:26;30.67;57.37
77052;SHT30;65980;44.898;8.602;2023-07-31T11:18:31;31.21;55.90
77052;SHT30;65980;44.898;8.602;2023-07-31T11:21:36;31.22;56.23
77052;SHT30;65980;44.898;8.602;2023-07-31T11:24:41;31.12;56.48
77052;SHT30;65980;44.898;8.602;2023-07-31T11:27:45;31.45;55.89
77052;SHT30;65980;44.898;8.602;2023-07-31T11:30:49;31.76;54.91
77052;SHT30;65980;44.898;8.602;2023-07-31T11:34:06;31.97;54.13
77052;SHT30;65980;44.898;8.602;2023-07-31T11:37:10;32.32;53.68
77052;SHT30;65980;44.898;8.602;2023-07-31T11:40:15;31.95;54.49
77052;SHT30;65980;44.898;8.602;2023-07-31T11:43:20;32.24;53.72
77052;SHT30;65980;44.898;8.602;2023-07-31T11:46:25;32.98;51.92
77052;SHT30;65980;44.898;8.602;2023-07-31T11:49:30;32.80;52.30
77052;SHT30;65980;44.898;8.602;2023-07-31T11:52:40;33.03;51.72
77052;SHT30;65980;44.898;8.602;2023-07-31T11:55:46;32.55;52.84
77052;SHT30;65980;44.898;8.602;2023-07-31T11:58:57;32.07;53.30
77052;SHT30;65980;44.898;8.602;2023-07-31T12:02:03;31.84;54.08
77052;SHT30;65980;44.898;8.602;2023-07-31T12:05:12;31.77;54.41
77052;SHT30;65980;44.898;8.602;2023-07-31T12:08:21;31.38;55.43
77052;SHT30;65980;44.898;8.602;2023-07-31T12:11:25;31.09;56.27
77052;SHT30;65980;44.898;8.602;2023-07-31T12:14:29;30.92;56.51
77052;SHT30;65980;44.898;8.602;2023-07-31T12:17:33;30.96;54.75
77052;SHT30;65980;44.898;8.602;2023-07-31T12:20:43;31.36;55.61
77052;SHT30;65980;44.898;8.602;2023-07-31T12:23:51;31.72;54.82
77052;SHT30;65980;44.898;8.602;2023-07-31T12:26:56;31.90;53.53
77052;SHT30;65980;44.898;8.602;2023-07-31T12:30:01;32.11;52.26
77052;SHT30;65980;44.898;8.602;2023-07-31T12:33:14;32.52;51.54
77052;SHT30;65980;44.898;8.602;2023-07-31T12:36:23;32.48;50.97
77052;SHT30;65980;44.898;8.602;2023-07-31T12:39:27;32.59;50.16
77052;SHT30;65980;44.898;8.602;2023-07-31T12:42:31;32.17;51.23
77052;SHT30;65980;44.898;8.602;2023-07-31T12:45:36;32.40;51.27
77052;SHT30;65980;44.898;8.602;2023-07-31T12:48:40;32.38;50.70
77052;SHT30;65980;44.898;8.602;2023-07-31T12:51:44;32.05;50.93
77052;SHT30;65980;44.898;8.602;2023-07-31T12:54:48;32.32;49.08
77052;SHT30;65980;44.898;8.602;2023-07-31T12:57:52;32.45;48.82
77052;SHT30;65980;44.898;8.602;2023-07-31T13:00:57;32.42;48.78
77052;SHT30;65980;44.898;8.602;2023-07-31T13:04:02;32.36;48.31
77052;SHT30;65980;44.898;8.602;2023-07-31T13:07:05;32.60;46.96
77052;SHT30;65980;44.898;8.602;2023-07-31T13:10:09;32.81;45.66
77052;SHT30;65980;44.898;8.602;2023-07-31T13:13:13;32.81;45.51
77052;SHT30;65980;44.898;8.602;2023-07-31T13:16:18;32.74;45.84
77052;SHT30;65980;44.898;8.602;2023-07-31T13:19:22;32.81;45.84
77052;SHT30;65980;44.898;8.602;2023-07-31T13:22:26;32.55;46.04
77052;SHT30;65980;44.898;8.602;2023-07-31T13:25:32;32.67;46.59
77052;SHT30;65980;44.898;8.602;2023-07-31T13:28:36;32.97;45.86
77052;SHT30;65980;44.898;8.602;2023-07-31T13:31:41;33.22;45.59
77052;SHT30;65980;44.898;8.602;2023-07-31T13:34:47;33.26;45.71
77052;SHT30;65980;44.898;8.602;2023-07-31T13:37:52;33.22;46.04
77052;SHT30;65980;44.898;8.602;2023-07-31T13:40:56;33.22;46.49
77052;SHT30;65980;44.898;8.602;2023-07-31T13:44:00;33.14;46.04
77052;SHT30;65980;44.898;8.602;2023-07-31T13:47:04;32.91;46.70
77052;SHT30;65980;44.898;8.602;2023-07-31T13:50:10;32.81;46.30
77052;SHT30;65980;44.898;8.602;2023-07-31T13:53:15;32.42;46.59
77052;SHT30;65980;44.898;8.602;2023-07-31T13:56:19;32.28;47.68
77052;SHT30;65980;44.898;8.602;2023-07-31T13:59:23;32.43;48.02
77052;SHT30;65980;44.898;8.602;2023-07-31T14:02:27;33.10;45.27
77052;SHT30;65980;44.898;8.602;2023-07-31T14:05:33;33.90;43.11
77052;SHT30;65980;44.898;8.602;2023-07-31T14:08:37;33.36;43.14
77052;SHT30;65980;44.898;8.602;2023-07-31T14:11:41;33.04;44.28
77052;SHT30;65980;44.898;8.602;2023-07-31T14:14:45;32.57;45.21
77052;SHT30;65980;44.898;8.602;2023-07-31T14:17:49;32.22;45.48
77052;SHT30;65980;44.898;8.602;2023-07-31T14:20:54;32.15;45.48
77052;SHT30;65980;44.898;8.602;2023-07-31T14:23:58;32.02;45.37
77052;SHT30;65980;44.898;8.602;2023-07-31T14:27:02;32.12;46.31
77052;SHT30;65980;44.898;8.602;2023-07-31T14:30:31;32.11;46.60
77052;SHT30;65980;44.898;8.602;2023-07-31T14:33:36;32.04;46.93
77052;SHT30;65980;44.898;8.602;2023-07-31T14:36:41;32.12;47.89
77052;SHT30;65980;44.898;8.602;2023-07-31T14:39:46;32.42;45.87
77052;SHT30;65980;44.898;8.602;2023-07-31T14:42:50;32.72;45.31
77052;SHT30;65980;44.898;8.602;2023-07-31T14:45:57;32.90;47.08
77052;SHT30;65980;44.898;8.602;2023-07-31T14:49:03;32.79;47.81
77052;SHT30;65980;44.898;8.602;2023-07-31T14:52:07;33.04;47.60
77052;SHT30;65980;44.898;8.602;2023-07-31T14:55:12;33.17;46.20
77052;SHT30;65980;44.898;8.602;2023-07-31T14:58:16;33.24;45.54
77052;SHT30;65980;44.898;8.602;2023-07-31T15:01:23;33.10;45.87
77052;SHT30;65980;44.898;8.602;2023-07-31T15:04:29;33.19;45.23
77052;SHT30;65980;44.898;8.602;2023-07-31T15:07:33;33.03;45.20
77052;SHT30;65980;44.898;8.602;2023-07-31T15:10:38;33.06;45.43
77052;SHT30;65980;44.898;8.602;2023-07-31T15:13:43;33.18;45.55
77052;SHT30;65980;44.898;8.602;2023-07-31T15:16:48;33.15;45.37
77052;SHT30;65980;44.898;8.602;2023-07-31T15:19:54;33.00;45.50
77052;SHT30;65980;44.898;8.602;2023-07-31T15:22:58;33.04;45.26
77052;SHT30;65980;44.898;8.602;2023-07-31T15:26:04;32.90;45.80
77052;SHT30;65980;44.898;8.602;2023-07-31T15:29:10;32.72;46.06
77052;SHT30;65980;44.898;8.602;2023-07-31T15:32:19;32.55;46.64
77052;SHT30;65980;44.898;8.602;2023-07-31T15:35:25;32.48;45.99
77052;SHT30;65980;44.898;8.602;2023-07-31T15:38:29;32.46;46.69
77052;SHT30;65980;44.898;8.602;2023-07-31T15:41:37;32.33;47.50
77052;SHT30;65980;44.898;8.602;2023-07-31T15:44:42;32.24;48.24
77052;SHT30;65980;44.898;8.602;2023-07-31T15:47:47;32.15;48.91
77052;SHT30;65980;44.898;8.602;2023-07-31T15:50:53;32.01;49.27
77052;SHT30;65980;44.898;8.602;2023-07-31T15:53:59;31.94;49.57
77052;SHT30;65980;44.898;8.602;2023-07-31T15:57:03;31.90;49.73
77052;SHT30;65980;44.898;8.602;2023-07-31T16:00:08;32.05;48.57
77052;SHT30;65980;44.898;8.602;2023-07-31T16:03:13;32.18;47.79
77052;SHT30;65980;44.898;8.602;2023-07-31T16:06:19;32.36;47.42
77052;SHT30;65980;44.898;8.602;2023-07-31T16:09:24;32.51;47.22
77052;SHT30;65980;44.898;8.602;2023-07-31T16:12:29;32.67;47.09
77052;SHT30;65980;44.898;8.602;2023-07-31T16:15:34;32.79;47.06
77052;SHT30;65980;44.898;8.602;2023-07-31T16:18:38;32.67;47.26
77052;SHT30;65980;44.898;8.602;2023-07-31T16:21:42;32.64;48.13
77052;SHT30;65980;44.898;8.602;2023-07-31T16:24:47;32.62;47.92
77052;SHT30;65980;44.898;8.602;2023-07-31T16:27:51;32.73;47.79
77052;SHT30;65980;44.898;8.602;2023-07-31T16:30:55;32.86;47.85
77052;SHT30;65980;44.898;8.602;2023-07-31T16:33:59;33.07;47.23
77052;SHT30;65980;44.898;8.602;2023-07-31T16:37:04;33.12;46.83
77052;SHT30;65980;44.898;8.602;2023-07-31T16:40:09;33.14;47.09
77052;SHT30;65980;44.898;8.602;2023-07-31T16:43:14;32.88;47.71
77052;SHT30;65980;44.898;8.602;2023-07-31T16:46:19;32.67;47.94
77052;SHT30;65980;44.898;8.602;2023-07-31T16:49:23;32.72;47.96
77052;SHT30;65980;44.898;8.602;2023-07-31T16:52:27;32.76;47.90
77052;SHT30;65980;44.898;8.602;2023-07-31T16:55:32;32.52;48.53
77052;SHT30;65980;44.898;8.602;2023-07-31T16:58:37;32.43;48.75
77052;SHT30;65980;44.898;8.602;2023-07-31T17:01:41;32.32;48.71
77052;SHT30;65980;44.898;8.602;2023-07-31T17:04:45;32.17;49.08
77052;SHT30;65980;44.898;8.602;2023-07-31T17:07:50;32.24;48.99
77052;SHT30;65980;44.898;8.602;2023-07-31T17:10:54;32.53;48.15
77052;SHT30;65980;44.898;8.602;2023-07-31T17:13:58;32.64;47.63
77052;SHT30;65980;44.898;8.602;2023-07-31T17:17:02;32.53;48.29
77052;SHT30;65980;44.898;8.602;2023-07-31T17:20:06;32.48;48.10
77052;SHT30;65980;44.898;8.602;2023-07-31T17:23:11;32.28;48.85
77052;SHT30;65980;44.898;8.602;2023-07-31T17:26:16;32.02;49.95
77052;SHT30;65980;44.898;8.602;2023-07-31T17:29:27;32.02;50.19
77052;SHT30;65980;44.898;8.602;2023-07-31T17:32:32;31.85;50.37
77052;SHT30;65980;44.898;8.602;2023-07-31T17:35:36;31.83;50.19
77052;SHT30;65980;44.898;8.602;2023-07-31T17:38:40;31.64;50.61
77052;SHT30;65980;44.898;8.602;2023-07-31T17:41:44;31.60;51.02
77052;SHT30;65980;44.898;8.602;2023-07-31T17:44:48;31.54;50.87
77052;SHT30;65980;44.898;8.602;2023-07-31T17:47:53;31.50;51.33
77052;SHT30;65980;44.898;8.602;2023-07-31T17:50:59;31.42;51.72
77052;SHT30;65980;44.898;8.602;2023-07-31T17:54:03;31.36;51.20
77052;SHT30;65980;44.898;8.602;2023-07-31T17:57:09;31.18;47.22
77052;SHT30;65980;44.898;8.602;2023-07-31T18:00:13;31.11;46.48
77052;SHT30;65980;44.898;8.602;2023-07-31T18:03:17;30.99;46.27
77052;SHT30;65980;44.898;8.602;2023-07-31T18:06:21;31.09;46.45
77052;SHT30;65980;44.898;8.602;2023-07-31T18:09:25;30.87;47.05
77052;SHT30;65980;44.898;8.602;2023-07-31T18:12:30;30.84;47.65
77052;SHT30;65980;44.898;8.602;2023-07-31T18:15:34;30.81;47.77
77052;SHT30;65980;44.898;8.602;2023-07-31T18:18:38;30.77;48.08
77052;SHT30;65980;44.898;8.602;2023-07-31T18:21:42;30.59;49.03
77052;SHT30;65980;44.898;8.602;2023-07-31T18:24:47;30.63;48.77
77052;SHT30;65980;44.898;8.602;2023-07-31T18:27:52;30.55;49.66
77052;SHT30;65980;44.898;8.602;2023-07-31T18:31:00;30.35;47.85
77052;SHT30;65980;44.898;8.602;2023-07-31T18:34:05;30.19;46.55
77052;SHT30;65980;44.898;8.602;2023-07-31T18:37:10;30.16;45.97
77052;SHT30;65980;44.898;8.602;2023-07-31T18:40:15;30.01;43.92
77052;SHT30;65980;44.898;8.602;2023-07-31T18:43:19;30.02;44.47
77052;SHT30;65980;44.898;8.602;2023-07-31T18:46:23;29.89;45.53
77052;SHT30;65980;44.898;8.602;2023-07-31T18:49:27;29.88;45.54
77052;SHT30;65980;44.898;8.602;2023-07-31T18:52:31;29.66;46.11
77052;SHT30;65980;44.898;8.602;2023-07-31T18:55:35;29.67;46.48
77052;SHT30;65980;44.898;8.602;2023-07-31T18:58:40;29.61;47.02
77052;SHT30;65980;44.898;8.602;2023-07-31T19:01:44;29.36;47.92
77052;SHT30;65980;44.898;8.602;2023-07-31T19:04:49;29.39;47.60
77052;SHT30;65980;44.898;8.602;2023-07-31T19:07:53;29.11;49.32
77052;SHT30;65980;44.898;8.602;2023-07-31T19:10:57;28.90;53.66
77052;SHT30;65980;44.898;8.602;2023-07-31T19:14:03;28.71;52.40
77052;SHT30;65980;44.898;8.602;2023-07-31T19:17:10;28.17;55.39
77052;SHT30;65980;44.898;8.602;2023-07-31T19:20:15;28.02;54.46
77052;SHT30;65980;44.898;8.602;2023-07-31T19:23:19;27.68;55.63
77052;SHT30;65980;44.898;8.602;2023-07-31T19:26:23;27.49;57.79
77052;SHT30;65980;44.898;8.602;2023-07-31T19:29:27;27.53;58.20
77052;SHT30;65980;44.898;8.602;2023-07-31T19:32:31;27.50;59.51
77052;SHT30;65980;44.898;8.602;2023-07-31T19:35:36;27.37;59.44
77052;SHT30;65980;44.898;8.602;2023-07-31T19:38:40;27.33;59.37